Garland's Hourly Summary for Thursday, March 16, 2017
Hour Temp
(f)
RH
(%)
Solar Rad.
(MJ/m2)
Rainfall
(in)
Wind
(mph)
3/16/2017 12:00 AM 53 56 0 0 5.44
3/16/2017 1:00 AM 52 60 0 0 6.28
3/16/2017 2:00 AM 51 63 0 0 5.02
3/16/2017 3:00 AM 50 68 0 0 5.18
3/16/2017 4:00 AM 49 70 0 0 6.66
3/16/2017 5:00 AM 50 75 0 0 7.54
3/16/2017 6:00 AM 52 81 0 0 9
3/16/2017 7:00 AM 53 86 0 0 7.4
3/16/2017 8:00 AM 54 89 0.01 0 6.92
3/16/2017 9:00 AM 54 89 0.08 0 6.66
3/16/2017 10:00 AM 55 87 0.2 0 6.82
3/16/2017 11:00 AM 56 84 0.3 0 7.75
3/16/2017 12:00 PM 57 81 0.44 0 7.4
3/16/2017 1:00 PM 58 76 0.65 0 7.65
3/16/2017 2:00 PM 61 73 0.79 0 8.9
3/16/2017 3:00 PM 63 70 0.65 0 8.47
3/16/2017 4:00 PM 65 68 0.61 0 7.3
3/16/2017 5:00 PM 67 64 0.98 0 10.14
3/16/2017 6:00 PM 69 62 0.74 0 9.17
3/16/2017 7:00 PM 70 61 0.32 0 9.3
3/16/2017 8:00 PM 69 62 0.05 0 8.73
3/16/2017 9:00 PM 67 67 0 0 7.94
3/16/2017 10:00 PM 66 68 0 0 8.71
3/16/2017 11:00 PM 65 73 0 0 9.19
Data Summary 58 72 5.82 0.00 7.65